MMPQ

Palenque International Airport

Mexico
TAF MMPQ 181641Z 1818/1918 06008KT 5SM HZ BKN015 FM190300 12005KT 3SM BR BKN010 TEMPO 1910/1914 1SM BR HZ FM191500 09006KT 5SM HZ SCT015
Issued Valid From Valid To
Dec-18 @ 16:41 UTC
(7 hours ago)
Dec-18 @ 18:00 UTC
(5 hours ago)
Dec-19 @ 18:00 UTC
(in 19 hours)
Dec-18 @ 18:00 to Dec-19 @ 03:00
TAF MMPQ 181641Z 1818/1918 06008KT 5SM HZ BKN015
Wind Visibility Clouds Conditions
60° at 8 knots 5 miles
  • Broken at 1,500' AGL
  • Haze
From Dec-19 @ 03:00 to Dec-19 @ 15:00
FM190300 12005KT 3SM BR BKN010
Wind Visibility Clouds Conditions
120° at 5 knots 3 miles
  • Broken at 1,000' AGL
  • Mist
Temporary Dec-19 @ 10:00 to Dec-19 @ 14:00
TEMPO 1910/1914 1SM BR HZ
Visibility Conditions
1 miles
  • Mist
  • Haze
From Dec-19 @ 15:00 to Dec-19 @ 18:00
FM191500 09006KT 5SM HZ SCT015
Wind Visibility Clouds Conditions
90° at 6 knots 5 miles
  • Scattered at 1,500' AGL
  • Haze
TAF MMPQ 181641Z 1818/1918 06008KT 5SM HZ BKN015 FM190300 12005KT 3SM BR BKN010 TEMPO 1910/1914 1SM BR HZ FM191500 09006KT 5SM HZ SCT015
Issued Dec-18 @ 16:41 UTC
(7 hours ago)
Valid From Dec-18 @ 18:00 UTC
(5 hours ago)
Valid To Dec-19 @ 18:00 UTC
(in 19 hours)
Dec-18 @ 18:00 - Dec-19 @ 03:00
Wind Visibility
60° at 8 knots 5 miles
Clouds
  • Broken at 1,500' AGL
Conditions
  • Haze
From Dec-19 @ 03:00 - Dec-19 @ 15:00
Wind Visibility
120° at 5 knots 3 miles
Clouds
  • Broken at 1,000' AGL
Conditions
  • Mist
Temporary Dec-19 @ 10:00 - Dec-19 @ 14:00
Conditions
  • Mist
  • Haze
From Dec-19 @ 15:00 - Dec-19 @ 18:00
Wind Visibility
90° at 6 knots 5 miles
Clouds
  • Scattered at 1,500' AGL
Conditions
  • Haze